createdAt,value
2017-12-26T00:00:01.333Z,84.97
2017-12-26T00:01:01.331Z,85.05
2017-12-26T00:02:01.333Z,85.32
2017-12-26T00:03:01.292Z,85.27
2017-12-26T00:04:01.364Z,85.08
2017-12-26T00:05:01.308Z,85.27
2017-12-26T00:06:01.310Z,85.24
2017-12-26T00:07:01.275Z,85.30
2017-12-26T00:08:01.355Z,85.13
2017-12-26T00:09:01.288Z,85.32
2017-12-26T00:10:01.352Z,85.32
2017-12-26T00:11:01.286Z,85.05
2017-12-26T00:12:01.310Z,85.13
2017-12-26T00:13:01.338Z,85.19
2017-12-26T00:14:01.377Z,85.30
2017-12-26T00:15:01.316Z,85.30
2017-12-26T00:16:01.400Z,85.19
2017-12-26T00:17:01.412Z,85.40
2017-12-26T00:18:01.384Z,85.24
2017-12-26T00:19:01.217Z,85.21
2017-12-26T00:20:01.193Z,85.27
2017-12-26T00:21:01.185Z,85.27
2017-12-26T00:22:01.260Z,85.46
2017-12-26T00:23:01.187Z,85.75
2017-12-26T00:24:01.184Z,85.66
2017-12-26T00:25:01.268Z,85.58
2017-12-26T00:26:01.185Z,85.61
2017-12-26T00:27:01.187Z,85.48
2017-12-26T00:28:01.187Z,85.50
2017-12-26T00:29:01.355Z,85.43
2017-12-26T00:30:01.356Z,85.56
2017-12-26T00:31:01.423Z,85.88
2017-12-26T00:32:01.429Z,85.88
2017-12-26T00:33:01.352Z,86.17
2017-12-26T00:34:01.426Z,86.30
2017-12-26T00:35:01.357Z,86.20
2017-12-26T00:36:01.426Z,86.28
2017-12-26T00:37:01.359Z,86.25
2017-12-26T00:38:01.431Z,86.17
2017-12-26T00:39:01.335Z,86.09
2017-12-26T00:40:01.328Z,85.96
2017-12-26T00:41:01.391Z,86.15
2017-12-26T00:42:01.308Z,86.12
2017-12-26T00:43:01.417Z,86.01
2017-12-26T00:44:01.337Z,86.04
2017-12-26T00:45:01.418Z,86.15
2017-12-26T00:46:01.417Z,86.28
2017-12-26T00:47:01.419Z,86.44
2017-12-26T00:48:01.420Z,86.60
2017-12-26T00:49:01.333Z,86.73
2017-12-26T00:50:01.413Z,86.87
2017-12-26T00:51:01.335Z,86.87
2017-12-26T00:52:01.333Z,86.97
2017-12-26T00:53:01.339Z,87.18
2017-12-26T00:54:01.379Z,87.24
2017-12-26T00:55:01.338Z,87.40
2017-12-26T00:56:01.441Z,87.18
2017-12-26T00:57:01.318Z,87.26
2017-12-26T00:58:01.441Z,87.40
2017-12-26T00:59:01.443Z,87.29
2017-12-26T01:00:01.369Z,87.61
2017-12-26T01:01:01.442Z,87.69
2017-12-26T01:02:01.364Z,87.88
2017-12-26T01:03:01.375Z,87.82
2017-12-26T01:04:01.443Z,87.93
2017-12-26T01:05:01.371Z,88.12
2017-12-26T01:06:01.444Z,88.23
2017-12-26T01:07:01.368Z,88.31
2017-12-26T01:08:01.379Z,88.46
2017-12-26T01:09:01.348Z,88.68
2017-12-26T01:10:01.347Z,88.54
2017-12-26T01:11:01.261Z,88.60
2017-12-26T01:12:01.254Z,88.65
2017-12-26T01:13:01.346Z,88.81
2017-12-26T01:14:01.260Z,88.76
2017-12-26T01:15:01.350Z,88.65
2017-12-26T01:16:01.297Z,88.62
2017-12-26T01:17:01.301Z,88.81
2017-12-26T01:18:01.306Z,88.92
2017-12-26T01:19:01.377Z,89.03
2017-12-26T01:20:01.455Z,89.03
2017-12-26T01:21:01.411Z,88.97
2017-12-26T01:22:01.344Z,89.06
2017-12-26T01:23:01.455Z,89.54
2017-12-26T01:24:01.456Z,89.70
2017-12-26T01:25:01.385Z,89.91
2017-12-26T01:26:01.460Z,89.78
2017-12-26T01:27:01.456Z,89.86
2017-12-26T01:28:01.381Z,90.07
2017-12-26T01:29:01.417Z,90.18
2017-12-26T01:30:01.421Z,90.31
2017-12-26T01:31:01.418Z,90.47
2017-12-26T01:32:01.418Z,90.61
2017-12-26T01:33:01.295Z,90.88
2017-12-26T01:34:01.361Z,91.14
2017-12-26T01:35:01.388Z,91.38
2017-12-26T01:36:01.298Z,91.52
2017-12-26T01:37:01.422Z,91.60
2017-12-26T01:38:01.328Z,91.82
2017-12-26T01:39:01.388Z,92.03
2017-12-26T01:40:01.465Z,92.08
2017-12-26T01:41:01.391Z,92.24
2017-12-26T01:42:01.401Z,92.40
2017-12-26T01:43:01.469Z,92.49
2017-12-26T01:44:01.401Z,92.62
2017-12-26T01:45:01.408Z,92.73
2017-12-26T01:46:01.399Z,92.57
2017-12-26T01:47:01.470Z,92.62
2017-12-26T01:48:01.403Z,92.49
2017-12-26T01:49:01.403Z,92.11
2017-12-26T01:50:01.349Z,92.01
2017-12-26T01:51:01.472Z,92.03
2017-12-26T01:52:01.474Z,91.97
2017-12-26T01:53:01.409Z,92.05
2017-12-26T01:54:01.408Z,92.24
2017-12-26T01:55:01.476Z,92.65
2017-12-26T01:56:01.399Z,92.73
2017-12-26T01:57:01.479Z,92.84
2017-12-26T01:58:01.404Z,92.97
2017-12-26T01:59:01.478Z,93.16
2017-12-26T02:00:01.413Z,93.51
2017-12-26T02:01:01.487Z,93.64
2017-12-26T02:02:01.447Z,93.54
2017-12-26T02:03:01.417Z,93.56
2017-12-26T02:04:01.484Z,93.70
2017-12-26T02:05:01.411Z,93.83
2017-12-26T02:06:01.420Z,93.91
2017-12-26T02:07:01.486Z,93.94
2017-12-26T02:08:01.411Z,93.89
2017-12-26T02:09:01.382Z,93.89
2017-12-26T02:10:01.366Z,93.70
2017-12-26T02:11:01.383Z,93.70
2017-12-26T02:12:01.486Z,93.89
2017-12-26T02:13:01.474Z,93.67
2017-12-26T02:14:01.429Z,93.59
2017-12-26T02:15:01.380Z,93.48
2017-12-26T02:16:01.435Z,93.43
2017-12-26T02:17:01.461Z,93.24
2017-12-26T02:18:01.394Z,93.05
2017-12-26T02:19:01.443Z,92.70
2017-12-26T02:20:01.415Z,92.30
2017-12-26T02:21:01.443Z,92.30
2017-12-26T02:22:01.391Z,92.32
2017-12-26T02:23:01.479Z,92.38
2017-12-26T02:24:01.351Z,92.43
2017-12-26T02:25:01.479Z,92.49
2017-12-26T02:26:01.456Z,92.32
2017-12-26T02:27:01.663Z,92.16
2017-12-26T02:28:01.493Z,91.97
2017-12-26T02:29:01.423Z,91.76
2017-12-26T02:30:01.497Z,91.71
2017-12-26T02:31:01.424Z,91.41
2017-12-26T02:32:01.497Z,91.36
2017-12-26T02:33:01.427Z,91.36
2017-12-26T02:34:01.501Z,91.36
2017-12-26T02:35:01.424Z,91.36
2017-12-26T02:36:01.500Z,91.36
2017-12-26T02:37:01.432Z,91.36
2017-12-26T02:38:01.432Z,91.36
2017-12-26T02:39:01.500Z,91.36
2017-12-26T02:40:01.449Z,91.36
2017-12-26T02:41:01.383Z,91.36
2017-12-26T02:42:01.508Z,91.36
2017-12-26T02:43:01.393Z,91.36
2017-12-26T02:44:01.498Z,91.36
2017-12-26T02:45:01.474Z,91.36
2017-12-26T02:46:01.469Z,91.36
2017-12-26T02:47:01.405Z,91.36
2017-12-26T02:48:01.418Z,91.36
2017-12-26T02:49:01.442Z,91.36
2017-12-26T02:50:01.492Z,91.36
2017-12-26T02:51:01.492Z,91.36
2017-12-26T02:52:01.497Z,91.36
2017-12-26T02:53:01.459Z,91.36
2017-12-26T02:54:01.390Z,91.36
2017-12-26T02:55:01.477Z,91.36
2017-12-26T02:56:01.499Z,91.36
2017-12-26T02:57:01.436Z,91.36
2017-12-26T02:58:01.455Z,91.36
2017-12-26T02:59:01.424Z,91.36
2017-12-26T03:00:01.417Z,91.36
2017-12-26T03:01:01.516Z,91.36
2017-12-26T03:02:01.427Z,91.36
2017-12-26T03:03:01.498Z,91.36
2017-12-26T03:04:01.517Z,91.36
2017-12-26T03:05:01.406Z,91.36
2017-12-26T03:06:01.461Z,91.36
2017-12-26T03:07:01.445Z,91.36
2017-12-26T03:08:01.483Z,91.36
2017-12-26T03:09:01.453Z,91.36
2017-12-26T03:10:01.522Z,91.36
2017-12-26T03:11:01.452Z,91.36
2017-12-26T03:12:01.522Z,91.36
2017-12-26T03:13:01.458Z,91.36
2017-12-26T03:14:01.522Z,91.36
2017-12-26T03:15:01.453Z,91.36
2017-12-26T03:16:01.460Z,91.36
2017-12-26T03:17:01.527Z,91.36
2017-12-26T03:18:01.458Z,91.36
2017-12-26T03:19:01.520Z,91.36
2017-12-26T03:20:01.471Z,91.36
2017-12-26T03:21:01.529Z,91.36
2017-12-26T03:22:01.425Z,91.36
2017-12-26T03:23:01.528Z,91.36
2017-12-26T03:24:01.490Z,91.36
2017-12-26T03:25:01.440Z,91.36
2017-12-26T03:26:01.515Z,91.36
2017-12-26T03:27:01.522Z,91.36
2017-12-26T03:28:01.412Z,91.36
2017-12-26T03:29:01.465Z,91.36
2017-12-26T03:30:01.534Z,91.36
2017-12-26T03:31:01.466Z,91.36
2017-12-26T03:32:01.537Z,91.36
2017-12-26T03:33:01.471Z,91.36
2017-12-26T03:34:01.535Z,91.36
2017-12-26T03:35:01.468Z,91.36
2017-12-26T03:36:01.536Z,91.36
2017-12-26T03:37:01.473Z,91.36
2017-12-26T03:38:01.539Z,91.36
2017-12-26T03:39:01.523Z,91.36
2017-12-26T03:40:01.443Z,91.36
2017-12-26T03:41:01.407Z,91.36
2017-12-26T03:42:01.540Z,91.36
2017-12-26T03:43:01.531Z,91.36
2017-12-26T03:44:01.531Z,91.36
2017-12-26T03:45:01.443Z,91.36
2017-12-26T03:46:01.425Z,91.36
2017-12-26T03:47:01.488Z,91.36
2017-12-26T03:48:01.426Z,91.36
2017-12-26T03:49:01.480Z,91.36
2017-12-26T03:50:01.546Z,91.36
2017-12-26T03:51:01.481Z,91.36
2017-12-26T03:52:01.547Z,91.36
2017-12-26T03:53:01.478Z,91.36
2017-12-26T03:54:01.548Z,91.36
2017-12-26T03:55:01.484Z,91.36
2017-12-26T03:56:01.441Z,91.36
2017-12-26T03:57:01.477Z,91.36
2017-12-26T03:58:01.549Z,91.36
2017-12-26T03:59:05.834Z,91.36
2017-12-26T04:00:01.505Z,91.36
2017-12-26T04:01:01.536Z,91.36
2017-12-26T04:02:01.419Z,91.36
2017-12-26T04:03:01.512Z,91.36
2017-12-26T04:04:01.517Z,91.36
2017-12-26T04:05:01.511Z,91.36
2017-12-26T04:06:01.517Z,91.36
2017-12-26T04:07:01.516Z,91.36
2017-12-26T04:08:01.462Z,91.36
2017-12-26T04:09:01.556Z,91.36
2017-12-26T04:10:01.556Z,91.36
2017-12-26T04:11:01.508Z,91.36
2017-12-26T04:12:01.560Z,91.36
2017-12-26T04:13:01.484Z,91.36
2017-12-26T04:14:01.491Z,91.36
2017-12-26T04:15:01.561Z,91.36
2017-12-26T04:16:01.491Z,91.36
2017-12-26T04:17:01.563Z,91.36
2017-12-26T04:18:01.489Z,91.36
2017-12-26T04:19:01.464Z,91.36
2017-12-26T04:20:01.507Z,91.36
2017-12-26T04:21:01.488Z,91.36
2017-12-26T04:22:01.527Z,91.36
2017-12-26T04:23:01.397Z,91.36
2017-12-26T04:24:01.451Z,91.36
2017-12-26T04:25:01.420Z,91.36
2017-12-26T04:26:01.467Z,91.36
2017-12-26T04:27:01.417Z,91.36
2017-12-26T04:28:01.528Z,91.36
2017-12-26T04:29:01.457Z,91.36
2017-12-26T04:30:01.555Z,91.36
2017-12-26T04:31:01.492Z,91.36
2017-12-26T04:32:01.451Z,91.36
2017-12-26T04:33:01.470Z,91.36
2017-12-26T04:34:01.556Z,91.36
2017-12-26T04:35:01.557Z,91.36
2017-12-26T04:36:01.533Z,91.36
2017-12-26T04:37:01.570Z,91.36
2017-12-26T04:38:01.472Z,91.36
2017-12-26T04:39:01.454Z,91.36
2017-12-26T04:40:01.485Z,91.36
2017-12-26T04:41:01.483Z,91.36
2017-12-26T04:42:01.455Z,91.36
2017-12-26T04:43:01.476Z,91.36
2017-12-26T04:44:01.540Z,91.36
2017-12-26T04:45:01.541Z,91.36
2017-12-26T04:46:01.570Z,91.36
2017-12-26T04:47:01.577Z,91.36
2017-12-26T04:48:01.489Z,91.36
2017-12-26T04:49:01.511Z,91.36
2017-12-26T04:50:01.508Z,91.36
2017-12-26T04:51:01.584Z,91.36
2017-12-26T04:52:01.510Z,91.36
2017-12-26T04:53:01.582Z,91.36
2017-12-26T04:54:01.584Z,91.36
2017-12-26T04:55:01.512Z,91.36
2017-12-26T04:56:01.584Z,91.36
2017-12-26T04:57:01.586Z,91.36
2017-12-26T04:58:01.525Z,91.36
2017-12-26T04:59:01.589Z,91.36
2017-12-26T05:00:01.587Z,91.36
2017-12-26T05:01:01.520Z,91.36
2017-12-26T05:02:01.589Z,91.36
2017-12-26T05:03:01.513Z,91.36
2017-12-26T05:04:01.589Z,91.36
2017-12-26T05:05:01.519Z,91.36
2017-12-26T05:06:01.592Z,91.36
2017-12-26T05:07:01.522Z,91.36
2017-12-26T05:08:01.593Z,91.36
2017-12-26T05:09:01.526Z,91.36
2017-12-26T05:10:01.594Z,91.36
2017-12-26T05:11:01.595Z,91.36
2017-12-26T05:12:01.525Z,91.36
2017-12-26T05:13:01.601Z,91.36
2017-12-26T05:14:01.523Z,91.36
2017-12-26T05:15:01.596Z,91.36
2017-12-26T05:16:01.525Z,91.36
2017-12-26T05:17:01.599Z,91.36
2017-12-26T05:18:01.523Z,91.36
2017-12-26T05:19:01.598Z,91.36
2017-12-26T05:20:01.529Z,91.36
2017-12-26T05:21:01.600Z,91.36
2017-12-26T05:22:01.526Z,91.36
2017-12-26T05:23:01.599Z,91.36
2017-12-26T05:24:01.602Z,91.36
2017-12-26T05:25:01.538Z,91.36
2017-12-26T05:26:01.604Z,91.36
2017-12-26T05:27:01.526Z,91.36
2017-12-26T05:28:01.553Z,91.36
2017-12-26T05:29:01.489Z,91.36
2017-12-26T05:30:01.526Z,91.36
2017-12-26T05:31:01.486Z,91.36
2017-12-26T05:32:01.574Z,91.36
2017-12-26T05:33:01.528Z,91.36
2017-12-26T05:34:01.513Z,91.36
2017-12-26T05:35:01.535Z,91.36
2017-12-26T05:36:01.594Z,91.36
2017-12-26T05:37:01.595Z,91.36
2017-12-26T05:38:01.557Z,91.36
2017-12-26T05:39:01.478Z,91.36
2017-12-26T05:40:01.476Z,91.36
2017-12-26T05:41:01.572Z,91.36
2017-12-26T05:42:01.493Z,91.36
2017-12-26T05:43:01.517Z,91.36
2017-12-26T05:44:01.573Z,91.36
2017-12-26T05:45:01.465Z,91.36
2017-12-26T05:46:01.538Z,91.36
2017-12-26T05:47:01.521Z,91.36
2017-12-26T05:48:01.522Z,91.36
2017-12-26T05:49:01.617Z,91.36
2017-12-26T05:50:01.552Z,91.36
2017-12-26T05:51:01.618Z,91.36
2017-12-26T05:52:01.548Z,91.36
2017-12-26T05:53:01.627Z,91.36
2017-12-26T05:54:01.619Z,91.36
2017-12-26T05:55:01.550Z,91.36
2017-12-26T05:56:01.623Z,91.36
2017-12-26T05:57:01.553Z,91.36
2017-12-26T05:58:01.621Z,91.36
2017-12-26T05:59:01.552Z,91.36
2017-12-26T06:00:01.511Z,91.36
2017-12-26T06:01:01.605Z,91.36
2017-12-26T06:02:01.582Z,91.36
2017-12-26T06:03:01.485Z,91.36
2017-12-26T06:04:01.582Z,91.36
2017-12-26T06:05:01.607Z,91.36
2017-12-26T06:06:01.515Z,91.36
2017-12-26T06:07:01.534Z,91.36
2017-12-26T06:08:01.586Z,91.36
2017-12-26T06:09:01.576Z,91.36
2017-12-26T06:10:01.585Z,91.36
2017-12-26T06:11:01.629Z,91.36
2017-12-26T06:12:01.558Z,91.36
2017-12-26T06:13:01.631Z,91.36
2017-12-26T06:14:01.563Z,91.36
2017-12-26T06:15:01.632Z,91.36
2017-12-26T06:16:01.633Z,91.36
2017-12-26T06:17:01.568Z,91.36
2017-12-26T06:18:01.636Z,91.36
2017-12-26T06:19:01.564Z,91.36
2017-12-26T06:20:01.569Z,91.36
2017-12-26T06:21:01.504Z,91.36
2017-12-26T06:22:01.502Z,91.36
2017-12-26T06:23:01.600Z,91.36
2017-12-26T06:24:01.545Z,91.36
2017-12-26T06:25:01.596Z,91.36
2017-12-26T06:26:01.509Z,91.36
2017-12-26T06:27:01.581Z,91.36
2017-12-26T06:28:01.568Z,91.36
2017-12-26T06:29:01.499Z,91.36
2017-12-26T06:30:01.569Z,91.36
2017-12-26T06:31:01.642Z,91.36
2017-12-26T06:32:01.571Z,91.36
2017-12-26T06:33:01.643Z,91.36
2017-12-26T06:34:01.587Z,91.36
2017-12-26T06:35:01.644Z,91.36
2017-12-26T06:36:01.569Z,91.36
2017-12-26T06:37:01.723Z,91.36
2017-12-26T06:38:01.646Z,91.36
2017-12-26T06:39:01.647Z,91.36
2017-12-26T06:40:01.579Z,91.36
2017-12-26T06:41:01.646Z,91.36
2017-12-26T06:42:01.623Z,91.36
2017-12-26T06:43:01.652Z,91.36
2017-12-26T06:44:01.608Z,91.36
2017-12-26T06:45:01.651Z,91.36
2017-12-26T06:46:01.578Z,91.36
2017-12-26T06:47:01.653Z,91.36
2017-12-26T06:48:01.577Z,91.36
2017-12-26T06:49:01.650Z,91.36
2017-12-26T06:50:01.589Z,91.36
2017-12-26T06:51:01.653Z,91.36
2017-12-26T06:52:01.590Z,91.36
2017-12-26T06:53:01.656Z,91.36
2017-12-26T06:54:01.587Z,91.36
2017-12-26T06:55:01.658Z,91.36
2017-12-26T06:56:01.585Z,91.36
2017-12-26T06:57:01.660Z,91.36
2017-12-26T06:58:01.590Z,91.36
2017-12-26T06:59:01.657Z,91.36
2017-12-26T07:00:01.564Z,91.36
2017-12-26T07:01:01.545Z,91.36
2017-12-26T07:02:01.526Z,91.36
2017-12-26T07:03:01.528Z,91.36
2017-12-26T07:04:01.613Z,91.36
2017-12-26T07:05:01.613Z,91.36
2017-12-26T07:06:01.587Z,91.36
2017-12-26T07:07:01.548Z,91.36
2017-12-26T07:08:01.565Z,91.36
2017-12-26T07:09:01.610Z,91.36
2017-12-26T07:10:01.597Z,91.36
2017-12-26T07:11:01.667Z,91.36
2017-12-26T07:12:01.666Z,91.36
2017-12-26T07:13:01.590Z,91.36
2017-12-26T07:14:01.666Z,91.36
2017-12-26T07:15:01.625Z,91.36
2017-12-26T07:16:01.669Z,91.36
2017-12-26T07:17:01.599Z,91.36
2017-12-26T07:18:01.671Z,91.36
2017-12-26T07:19:01.599Z,91.36
2017-12-26T07:20:01.550Z,91.36
2017-12-26T07:21:01.564Z,91.36
2017-12-26T07:22:01.551Z,91.36
2017-12-26T07:23:01.504Z,91.36
2017-12-26T07:24:01.612Z,91.36
2017-12-26T07:25:01.615Z,91.36
2017-12-26T07:26:01.559Z,91.36
2017-12-26T07:27:01.618Z,91.36
2017-12-26T07:28:01.522Z,91.36
2017-12-26T07:29:01.615Z,91.36
2017-12-26T07:30:01.825Z,91.36
2017-12-26T07:31:01.585Z,91.36
2017-12-26T07:32:01.617Z,91.36
2017-12-26T07:33:01.561Z,91.36
2017-12-26T07:34:01.576Z,91.36
2017-12-26T07:35:01.678Z,91.36
2017-12-26T07:36:01.624Z,91.36
2017-12-26T07:37:01.558Z,91.36
2017-12-26T07:38:01.716Z,91.36
2017-12-26T07:39:01.649Z,91.36
2017-12-26T07:40:01.643Z,91.36
2017-12-26T07:41:01.580Z,91.36
2017-12-26T07:42:01.646Z,91.36
2017-12-26T07:43:01.682Z,91.36
2017-12-26T07:44:01.593Z,91.36
2017-12-26T07:45:01.594Z,91.36
2017-12-26T07:46:01.594Z,91.36
2017-12-26T07:47:01.653Z,91.36
2017-12-26T07:48:01.670Z,91.36
2017-12-26T07:49:01.669Z,91.36
2017-12-26T07:50:01.683Z,91.36
2017-12-26T07:51:01.646Z,91.36
2017-12-26T07:52:01.566Z,91.36
2017-12-26T07:53:01.587Z,91.36
2017-12-26T07:54:01.599Z,91.36
2017-12-26T07:55:01.595Z,91.36
2017-12-26T07:56:01.681Z,91.36
2017-12-26T07:57:01.593Z,91.36
2017-12-26T07:58:01.651Z,91.36
2017-12-26T07:59:01.588Z,91.36
2017-12-26T08:00:01.618Z,91.36
2017-12-26T08:01:01.700Z,91.36
2017-12-26T08:02:01.627Z,91.36
2017-12-26T08:03:01.698Z,91.36
2017-12-26T08:04:01.623Z,91.36
2017-12-26T08:05:01.694Z,91.36
2017-12-26T08:06:01.626Z,91.36
2017-12-26T08:07:01.698Z,91.36
2017-12-26T08:08:01.718Z,91.36
2017-12-26T08:09:01.628Z,91.36
2017-12-26T08:10:01.629Z,91.36
2017-12-26T08:11:01.701Z,91.36
2017-12-26T08:12:01.631Z,91.36
2017-12-26T08:13:01.704Z,91.36
2017-12-26T08:14:01.642Z,91.36
2017-12-26T08:15:01.704Z,91.36
2017-12-26T08:16:01.706Z,91.36
2017-12-26T08:17:01.631Z,91.36
2017-12-26T08:18:01.708Z,91.36
2017-12-26T08:19:01.640Z,91.36
2017-12-26T08:20:01.617Z,91.36
2017-12-26T08:21:01.710Z,91.36
2017-12-26T08:22:01.711Z,91.36
2017-12-26T08:23:01.702Z,91.36
2017-12-26T08:24:01.648Z,91.36
2017-12-26T08:25:01.618Z,91.36
2017-12-26T08:26:01.708Z,91.36
2017-12-26T08:27:01.617Z,91.36
2017-12-26T08:28:01.620Z,91.36
2017-12-26T08:29:01.620Z,91.36
2017-12-26T08:30:01.709Z,91.36
2017-12-26T08:31:01.714Z,91.36
2017-12-26T08:32:01.624Z,91.36
2017-12-26T08:33:01.714Z,91.36
2017-12-26T08:34:01.719Z,91.36
2017-12-26T08:35:01.655Z,91.36
2017-12-26T08:36:01.715Z,91.36
2017-12-26T08:37:01.708Z,91.36
2017-12-26T08:38:01.719Z,91.36
2017-12-26T08:39:01.723Z,91.36
2017-12-26T08:40:01.671Z,91.36
2017-12-26T08:41:01.643Z,91.36
2017-12-26T08:42:01.706Z,91.36
2017-12-26T08:43:01.679Z,91.36
2017-12-26T08:44:01.616Z,91.36
2017-12-26T08:45:01.594Z,91.36
2017-12-26T08:46:01.599Z,91.36
2017-12-26T08:47:01.619Z,91.36
2017-12-26T08:48:01.649Z,91.36
2017-12-26T08:49:01.619Z,91.36
2017-12-26T08:50:01.739Z,91.36
2017-12-26T08:51:01.657Z,91.36
2017-12-26T08:52:01.726Z,91.36
2017-12-26T08:53:01.657Z,91.36
2017-12-26T08:54:01.657Z,91.36
2017-12-26T08:55:01.753Z,91.36
2017-12-26T08:56:01.690Z,91.36
2017-12-26T08:57:01.732Z,91.36
2017-12-26T08:58:01.729Z,91.36
2017-12-26T08:59:01.654Z,91.36
2017-12-26T09:00:01.657Z,91.36
2017-12-26T09:01:01.691Z,91.36
2017-12-26T09:02:01.763Z,91.36
2017-12-26T09:03:01.612Z,91.36
2017-12-26T09:04:01.601Z,91.36
2017-12-26T09:05:01.613Z,91.36
2017-12-26T09:06:01.612Z,91.36
2017-12-26T09:07:01.670Z,91.36
2017-12-26T09:08:01.671Z,91.36
2017-12-26T09:09:01.629Z,91.36
2017-12-26T09:10:01.732Z,91.36
2017-12-26T09:11:01.663Z,91.36
2017-12-26T09:12:01.739Z,91.36
2017-12-26T09:13:01.663Z,91.36
2017-12-26T09:14:01.901Z,91.36
2017-12-26T09:15:01.624Z,91.36
2017-12-26T09:16:01.677Z,91.36
2017-12-26T09:17:01.740Z,91.36
2017-12-26T09:18:01.703Z,91.36
2017-12-26T09:19:01.666Z,91.36
2017-12-26T09:20:01.740Z,91.36
2017-12-26T09:21:01.738Z,91.36
2017-12-26T09:22:01.741Z,91.36
2017-12-26T09:23:01.744Z,91.36
2017-12-26T09:24:01.740Z,91.36
2017-12-26T09:25:01.737Z,91.36
2017-12-26T09:26:01.749Z,91.36
2017-12-26T09:27:01.668Z,91.36
2017-12-26T09:28:01.743Z,91.36
2017-12-26T09:29:01.658Z,91.36
2017-12-26T09:30:01.612Z,91.36
2017-12-26T09:31:01.614Z,91.36
2017-12-26T09:32:01.651Z,91.36
2017-12-26T09:33:01.580Z,91.36
2017-12-26T09:34:01.621Z,91.36
2017-12-26T09:35:01.618Z,91.36
2017-12-26T09:36:01.675Z,91.36
2017-12-26T09:37:01.675Z,91.36
2017-12-26T09:38:01.617Z,91.36
2017-12-26T09:39:01.616Z,91.36
2017-12-26T09:40:01.751Z,91.36
2017-12-26T09:41:01.748Z,91.36
2017-12-26T09:42:01.762Z,91.36
2017-12-26T09:43:01.693Z,91.36
2017-12-26T09:44:01.750Z,91.36
2017-12-26T09:45:01.759Z,91.36
2017-12-26T09:46:01.667Z,91.36
2017-12-26T09:47:01.667Z,91.36
2017-12-26T09:48:01.752Z,91.36
2017-12-26T09:49:01.667Z,91.36
2017-12-26T09:50:01.645Z,91.36
2017-12-26T09:51:01.747Z,91.36
2017-12-26T09:52:01.653Z,91.36
2017-12-26T09:53:01.698Z,91.36
2017-12-26T09:54:01.726Z,91.36
2017-12-26T09:55:01.758Z,91.36
2017-12-26T09:56:01.662Z,91.36
2017-12-26T09:57:01.781Z,91.36
2017-12-26T09:58:01.706Z,91.36
2017-12-26T09:59:01.731Z,91.36
2017-12-26T10:00:01.702Z,91.36
2017-12-26T10:01:01.691Z,91.36
2017-12-26T10:02:01.691Z,91.36
2017-12-26T10:03:01.719Z,91.36
2017-12-26T10:04:01.705Z,91.36
2017-12-26T10:05:01.766Z,91.36
2017-12-26T10:06:01.767Z,91.36
2017-12-26T10:07:01.779Z,91.36
2017-12-26T10:08:01.717Z,91.36
2017-12-26T10:09:01.680Z,91.36
2017-12-26T10:10:01.655Z,91.36
2017-12-26T10:11:01.772Z,91.36
2017-12-26T10:12:01.733Z,91.36
2017-12-26T10:13:01.732Z,91.36
2017-12-26T10:14:01.733Z,91.36
2017-12-26T10:15:01.700Z,91.36
2017-12-26T10:16:01.733Z,91.36
2017-12-26T10:17:01.715Z,91.36
2017-12-26T10:18:01.737Z,91.36
2017-12-26T10:19:01.646Z,91.36
2017-12-26T10:20:01.652Z,91.36
2017-12-26T10:21:01.747Z,91.36
2017-12-26T10:22:01.770Z,91.36
2017-12-26T10:23:01.656Z,91.36
2017-12-26T10:24:01.739Z,91.36
2017-12-26T10:25:01.681Z,91.36
2017-12-26T10:26:01.657Z,91.36
2017-12-26T10:27:01.739Z,91.36
2017-12-26T10:28:01.680Z,91.36
2017-12-26T10:29:01.784Z,91.36
2017-12-26T10:30:01.748Z,91.36
2017-12-26T10:31:01.665Z,91.36
2017-12-26T10:32:01.742Z,91.36
2017-12-26T10:33:01.752Z,91.36
2017-12-26T10:34:01.692Z,91.36
2017-12-26T10:35:01.685Z,91.36
2017-12-26T10:36:01.689Z,91.36
2017-12-26T10:37:01.698Z,91.36
2017-12-26T10:38:01.689Z,91.36
2017-12-26T10:39:01.727Z,91.36
2017-12-26T10:40:01.702Z,91.36
2017-12-26T10:41:01.795Z,91.36
2017-12-26T10:42:01.696Z,91.36
2017-12-26T10:43:01.669Z,91.36
2017-12-26T10:44:01.703Z,91.36
2017-12-26T10:45:01.698Z,91.36
2017-12-26T10:46:01.785Z,91.36
2017-12-26T10:47:01.794Z,91.36
2017-12-26T10:48:01.755Z,91.36
2017-12-26T10:49:01.704Z,91.36
2017-12-26T10:50:01.791Z,91.36
2017-12-26T10:51:01.805Z,91.36
2017-12-26T10:52:01.793Z,91.36
2017-12-26T10:53:01.750Z,91.36
2017-12-26T10:54:01.711Z,91.36
2017-12-26T10:55:01.707Z,91.36
2017-12-26T10:56:01.802Z,91.36
2017-12-26T10:57:01.729Z,91.36
2017-12-26T10:58:01.720Z,91.36
2017-12-26T10:59:01.798Z,91.36
2017-12-26T11:00:01.715Z,91.36
2017-12-26T11:01:01.742Z,91.36
2017-12-26T11:02:01.734Z,91.36
2017-12-26T11:03:01.739Z,91.36
2017-12-26T11:04:01.712Z,91.36
2017-12-26T11:05:01.801Z,91.36
2017-12-26T11:06:01.810Z,91.36
2017-12-26T11:07:01.798Z,91.36
2017-12-26T11:08:01.804Z,91.36
2017-12-26T11:09:01.712Z,91.36
2017-12-26T11:10:01.752Z,91.36
2017-12-26T11:11:01.654Z,91.36
2017-12-26T11:12:01.736Z,91.36
2017-12-26T11:13:01.685Z,91.36
2017-12-26T11:14:01.723Z,91.36
2017-12-26T11:15:01.736Z,91.36
2017-12-26T11:16:01.636Z,91.36
2017-12-26T11:17:01.720Z,91.36
2017-12-26T11:18:01.635Z,91.36
2017-12-26T11:19:01.697Z,91.36
2017-12-26T11:20:01.810Z,91.36
2017-12-26T11:21:01.810Z,91.36
2017-12-26T11:22:01.815Z,91.36
2017-12-26T11:23:01.740Z,91.36
2017-12-26T11:24:01.756Z,91.36
2017-12-26T11:25:01.743Z,91.36
2017-12-26T11:26:01.964Z,91.36
2017-12-26T11:27:01.814Z,91.36
2017-12-26T11:28:01.824Z,91.36
2017-12-26T11:29:01.821Z,91.36
2017-12-26T11:30:01.814Z,91.36
2017-12-26T11:31:01.818Z,91.36
2017-12-26T11:32:01.819Z,91.36
2017-12-26T11:33:01.731Z,91.36
2017-12-26T11:34:01.733Z,91.36
2017-12-26T11:35:01.820Z,91.36
2017-12-26T11:36:01.821Z,91.36
2017-12-26T11:37:01.737Z,91.36
2017-12-26T11:38:01.818Z,91.36
2017-12-26T11:39:01.756Z,91.36
2017-12-26T11:40:01.735Z,91.36
2017-12-26T11:41:01.705Z,91.36
2017-12-26T11:42:01.720Z,91.36
2017-12-26T11:43:01.696Z,91.36
2017-12-26T11:44:01.701Z,91.36
2017-12-26T11:45:01.707Z,91.36
2017-12-26T11:46:01.787Z,91.36
2017-12-26T11:47:01.709Z,91.36
2017-12-26T11:48:01.768Z,91.36
2017-12-26T11:49:01.706Z,91.36
2017-12-26T11:50:01.747Z,91.36
2017-12-26T11:51:01.760Z,91.36
2017-12-26T11:52:01.745Z,91.36
2017-12-26T11:53:01.835Z,91.36
2017-12-26T11:54:01.746Z,91.36
2017-12-26T11:55:01.836Z,91.36
2017-12-26T11:56:01.840Z,91.36
2017-12-26T11:57:01.748Z,91.36
2017-12-26T11:58:01.768Z,91.36
2017-12-26T11:59:01.836Z,91.36
2017-12-26T12:00:01.838Z,91.36
2017-12-26T12:01:01.751Z,91.36
2017-12-26T12:02:01.750Z,91.36
2017-12-26T12:03:01.768Z,91.36
2017-12-26T12:04:01.838Z,91.36
2017-12-26T12:05:01.843Z,91.36
2017-12-26T12:06:01.844Z,91.36
2017-12-26T12:07:01.771Z,91.36
2017-12-26T12:08:01.847Z,91.36
2017-12-26T12:09:01.769Z,91.36
2017-12-26T12:10:01.840Z,91.36
2017-12-26T12:11:01.744Z,91.36
2017-12-26T12:12:01.828Z,91.36
2017-12-26T12:13:01.757Z,91.36
2017-12-26T12:14:01.749Z,91.36
2017-12-26T12:15:01.720Z,91.36
2017-12-26T12:16:01.734Z,91.36
2017-12-26T12:17:01.841Z,91.36
2017-12-26T12:18:01.835Z,91.36
2017-12-26T12:19:01.748Z,91.36
2017-12-26T12:20:01.836Z,91.36
2017-12-26T12:21:01.852Z,91.36
2017-12-26T12:22:01.778Z,91.36
2017-12-26T12:23:01.781Z,91.36
2017-12-26T12:24:01.778Z,91.36
2017-12-26T12:25:01.858Z,91.36
2017-12-26T12:26:01.781Z,91.36
2017-12-26T12:27:01.894Z,91.36
2017-12-26T12:28:01.781Z,91.36
2017-12-26T12:29:01.855Z,91.36
2017-12-26T12:30:01.769Z,91.36
2017-12-26T12:31:01.749Z,91.36
2017-12-26T12:32:01.767Z,91.36
2017-12-26T12:33:01.728Z,91.36
2017-12-26T12:34:01.739Z,91.36
2017-12-26T12:35:01.760Z,91.36
2017-12-26T12:36:01.732Z,91.36
2017-12-26T12:37:01.805Z,91.36
2017-12-26T12:38:01.821Z,91.36
2017-12-26T12:39:01.816Z,91.36
2017-12-26T12:40:01.730Z,91.36
2017-12-26T12:41:01.863Z,91.36
2017-12-26T12:42:01.790Z,91.36
2017-12-26T12:43:01.791Z,91.36
2017-12-26T12:44:01.864Z,91.36
2017-12-26T12:45:01.797Z,91.36
2017-12-26T12:46:01.866Z,91.36
2017-12-26T12:47:01.792Z,91.36
2017-12-26T12:48:01.868Z,91.36
2017-12-26T12:49:01.795Z,91.36
2017-12-26T12:50:01.874Z,91.36
2017-12-26T12:51:01.859Z,91.36
2017-12-26T12:52:01.868Z,91.36